Time;durP1;ratioP1;P1;durP2;ratioP2;P2;SDS_P1;SDS_P2;PMS_P1;PMS_P2;Temp;Humidity;BMP_temperature;BMP_pressure;BME280_temperature;BME280_humidity;BME280_pressure;Samples;Min_cycle;Max_cycle;Signal;HPM_P1;HPM_P2
2023/07/29 00:00:46;;;;;;;2.38;2.17;;;19.10;99.90;;;;;;5018477;28;20220;-81
2023/07/29 00:03:12;;;;;;;2.10;1.92;;;19.30;99.90;;;;;;5018125;28;20589;-80
2023/07/29 00:05:40;;;;;;;2.75;2.03;;;19.10;99.90;;;;;;5018271;28;20578;-80
2023/07/29 00:08:07;;;;;;;2.55;2.13;;;19.10;99.90;;;;;;5017925;28;20200;-80
2023/07/29 00:10:36;;;;;;;4.55;3.15;;;19.00;99.90;;;;;;5018253;28;20211;-80
2023/07/29 00:13:03;;;;;;;4.18;2.47;;;19.10;99.90;;;;;;5017728;28;20782;-80
2023/07/29 00:15:32;;;;;;;3.22;2.00;;;19.10;99.90;;;;;;5016470;28;20404;-80
2023/07/29 00:17:58;;;;;;;2.65;2.28;;;19.00;99.90;;;;;;5003924;28;20205;-81
2023/07/29 00:20:25;;;;;;;2.20;2.00;;;19.00;99.90;;;;;;5014395;28;20204;-80
2023/07/29 00:22:53;;;;;;;3.63;2.38;;;18.90;99.90;;;;;;5017438;28;20215;-80
2023/07/29 00:25:20;;;;;;;2.47;1.80;;;19.00;99.90;;;;;;5017878;28;20201;-80
2023/07/29 00:27:48;;;;;;;2.63;2.30;;;18.90;99.90;;;;;;5004150;28;20221;-80
2023/07/29 00:30:15;;;;;;;2.38;2.17;;;18.80;99.90;;;;;;4997993;28;20201;-80
2023/07/29 00:32:43;;;;;;;3.03;2.50;;;18.80;99.90;;;;;;5011340;28;20197;-81
2023/07/29 00:35:10;;;;;;;2.42;2.22;;;18.70;99.90;;;;;;5017386;28;20409;-81
2023/07/29 00:37:38;;;;;;;2.58;2.20;;;18.80;99.90;;;;;;5016971;28;20652;-80
2023/07/29 00:40:15;;;;;;;1.92;1.83;;;18.90;99.90;;;;;;5017548;28;20650;-81
2023/07/29 00:42:43;;;;;;;2.20;2.10;;;19.00;99.90;;;;;;5017766;28;20231;-83
2023/07/29 00:45:11;;;;;;;2.38;2.15;;;18.90;99.90;;;;;;5017471;28;20424;-80
2023/07/29 00:47:38;;;;;;;3.50;2.20;;;18.90;99.90;;;;;;5017363;28;20239;-81
2023/07/29 00:50:07;;;;;;;2.65;2.45;;;18.70;99.90;;;;;;5017493;28;20575;-80
2023/07/29 00:52:35;;;;;;;2.70;2.50;;;18.80;99.90;;;;;;5017716;28;20223;-81
2023/07/29 00:55:01;;;;;;;2.28;2.17;;;18.70;99.90;;;;;;5015978;28;20216;-80
2023/07/29 00:57:30;;;;;;;2.63;2.42;;;18.70;99.90;;;;;;5016296;28;20594;-81
2023/07/29 00:59:58;;;;;;;3.20;2.35;;;18.70;99.90;;;;;;5016877;28;20208;-81
2023/07/29 01:02:24;;;;;;;2.38;2.17;;;18.90;99.90;;;;;;5016674;28;20569;-81
2023/07/29 01:04:53;;;;;;;6.68;2.25;;;18.70;99.90;;;;;;5017057;28;20258;-80
2023/07/29 01:07:30;;;;;;;2.78;2.20;;;18.50;99.90;;;;;;5016374;28;20224;-80
2023/07/29 01:10:03;;;;;;;2.85;2.35;;;18.40;99.90;;;;;;5017033;28;20188;-81
2023/07/29 01:12:42;;;;;;;3.58;2.63;;;18.40;99.90;;;;;;5016542;28;20196;-80
2023/07/29 01:15:16;;;;;;;3.65;2.53;;;18.40;99.90;;;;;;5016392;28;20202;-81
2023/07/29 01:17:49;;;;;;;3.42;2.80;;;18.30;99.90;;;;;;5016382;28;20235;-81
2023/07/29 01:20:17;;;;;;;2.90;2.60;;;18.30;99.90;;;;;;5017459;28;20732;-80
2023/07/29 01:22:45;;;;;;;5.30;2.85;;;18.30;99.90;;;;;;5016548;28;20231;-81
2023/07/29 01:25:13;;;;;;;2.63;2.40;;;18.20;99.90;;;;;;5015964;28;20206;-80
2023/07/29 01:27:41;;;;;;;2.60;2.40;;;18.30;99.90;;;;;;5015994;28;20228;-80
2023/07/29 01:30:09;;;;;;;2.97;2.58;;;18.30;99.90;;;;;;5016132;28;20287;-81
2023/07/29 01:32:42;;;;;;;2.35;2.15;;;18.10;99.90;;;;;;5016181;28;20663;-81
2023/07/29 01:35:17;;;;;;;2.60;2.40;;;18.00;99.90;;;;;;5017104;28;20208;-80
2023/07/29 01:37:48;;;;;;;6.22;2.67;;;17.90;99.90;;;;;;4996301;28;20389;-80
2023/07/29 01:40:18;;;;;;;3.28;2.47;;;18.00;99.90;;;;;;5009211;28;20204;-81
2023/07/29 01:42:46;;;;;;;2.90;2.42;;;17.90;99.90;;;;;;5015960;28;20228;-80
2023/07/29 01:45:12;;;;;;;3.50;2.65;;;18.10;99.90;;;;;;5016605;28;20737;-80
2023/07/29 01:47:41;;;;;;;2.70;2.50;;;18.00;99.90;;;;;;5015361;28;20291;-80
2023/07/29 01:50:09;;;;;;;2.75;2.40;;;18.10;99.90;;;;;;5016385;28;20208;-80
2023/07/29 01:52:36;;;;;;;2.50;2.30;;;18.00;99.90;;;;;;5014817;28;20228;-80
2023/07/29 01:55:03;;;;;;;2.40;2.20;;;18.10;99.90;;;;;;5016086;28;20707;-81
2023/07/29 01:57:31;;;;;;;3.67;2.60;;;18.20;99.90;;;;;;5015872;28;20233;-80
2023/07/29 01:59:58;;;;;;;2.45;2.25;;;18.20;99.90;;;;;;5017069;28;20701;-80
2023/07/29 02:02:26;;;;;;;3.40;2.15;;;18.20;99.90;;;;;;5015910;28;20224;-81
2023/07/29 02:04:53;;;;;;;4.13;2.30;;;18.10;99.90;;;;;;5016334;28;20248;-81
2023/07/29 02:07:20;;;;;;;3.22;2.15;;;18.10;99.90;;;;;;5015238;28;20313;-80
2023/07/29 02:09:46;;;;;;;5.35;2.67;;;18.10;99.90;;;;;;5016478;28;20625;-81
2023/07/29 02:12:13;;;;;;;9.32;3.63;;;18.00;99.90;;;;;;5016213;28;20716;-80
2023/07/29 02:14:41;;;;;;;6.00;3.03;;;17.90;99.90;;;;;;5016042;28;20220;-81
2023/07/29 02:17:08;;;;;;;8.50;4.00;;;18.10;99.90;;;;;;5015027;28;20226;-81
2023/07/29 02:19:35;;;;;;;6.22;3.38;;;18.00;99.90;;;;;;5015873;28;20299;-81
2023/07/29 02:22:02;;;;;;;9.45;4.13;;;18.20;99.90;;;;;;5015142;28;20263;-81
2023/07/29 02:24:29;;;;;;;10.15;4.38;;;18.20;99.90;;;;;;5015526;28;20579;-80
2023/07/29 02:26:56;;;;;;;6.55;3.15;;;18.30;99.90;;;;;;5015009;28;20586;-80
2023/07/29 02:29:23;;;;;;;7.72;3.45;;;18.40;99.90;;;;;;5013935;28;20200;-81
2023/07/29 02:31:51;;;;;;;7.03;3.38;;;18.40;99.90;;;;;;5014653;28;20207;-81
2023/07/29 02:34:18;;;;;;;6.75;2.90;;;18.40;99.90;;;;;;5013718;28;20215;-81
2023/07/29 02:36:45;;;;;;;4.95;2.67;;;18.40;99.90;;;;;;5020383;28;20227;-80
2023/07/29 02:39:12;;;;;;;4.05;2.50;;;18.30;99.90;;;;;;5009162;28;20208;-80
2023/07/29 02:41:39;;;;;;;3.88;2.55;;;18.30;99.90;;;;;;5011494;28;20335;-80
2023/07/29 02:44:06;;;;;;;2.10;1.90;;;18.30;99.90;;;;;;5003379;28;20205;-81
2023/07/29 02:46:33;;;;;;;2.08;1.98;;;18.30;99.90;;;;;;5009705;28;20231;-80
2023/07/29 02:49:02;;;;;;;2.60;2.40;;;18.20;99.90;;;;;;5011417;28;20197;-80
2023/07/29 02:51:29;;;;;;;3.17;2.00;;;18.30;99.90;;;;;;4995558;28;20205;-80
2023/07/29 02:53:56;;;;;;;4.00;2.17;;;18.40;99.90;;;;;;5015196;28;20205;-81
2023/07/29 02:56:23;;;;;;;2.47;2.05;;;18.40;99.90;;;;;;5014847;28;20235;-81
2023/07/29 02:58:51;;;;;;;1.98;1.88;;;18.50;99.90;;;;;;5014726;28;20204;-80
2023/07/29 03:01:18;;;;;;;3.88;1.95;;;18.50;99.90;;;;;;5015489;28;20207;-80
2023/07/29 03:03:45;;;;;;;2.00;1.90;;;18.60;99.90;;;;;;5015323;28;20211;-81
2023/07/29 03:06:15;;;;;;;2.03;1.92;;;18.60;99.90;;;;;;5014898;28;20263;-80
2023/07/29 03:08:42;;;;;;;2.13;1.92;;;18.60;99.90;;;;;;5014519;28;20654;-81
2023/07/29 03:11:11;;;;;;;2.63;2.30;;;18.70;99.90;;;;;;5014477;28;20197;-80
2023/07/29 03:13:38;;;;;;;2.47;2.15;;;18.70;99.90;;;;;;5014796;28;20200;-80
2023/07/29 03:16:07;;;;;;;1.88;1.77;;;18.70;99.90;;;;;;5014461;28;20227;-81
2023/07/29 03:18:34;;;;;;;2.15;1.83;;;18.70;99.90;;;;;;5015785;28;20200;-80
2023/07/29 03:21:01;;;;;;;1.80;1.70;;;18.70;99.90;;;;;;5018813;28;20227;-81
2023/07/29 03:23:31;;;;;;;2.42;1.92;;;18.70;99.90;;;;;;5018466;28;20216;-80
2023/07/29 03:25:58;;;;;;;3.00;1.90;;;18.80;99.90;;;;;;5017724;28;20224;-81
2023/07/29 03:28:27;;;;;;;3.50;1.80;;;18.70;99.90;;;;;;5018372;28;20677;-81
2023/07/29 03:30:53;;;;;;;2.42;2.05;;;18.70;99.90;;;;;;5019010;28;20573;-81
2023/07/29 03:33:20;;;;;;;2.58;1.85;;;18.70;99.90;;;;;;5018873;28;20723;-81
2023/07/29 03:35:47;;;;;;;1.88;1.77;;;18.80;99.90;;;;;;5013701;28;20668;-80
2023/07/29 03:38:14;;;;;;;1.98;1.88;;;18.80;99.90;;;;;;5018204;28;20654;-80
2023/07/29 03:40:43;;;;;;;2.95;1.80;;;18.80;99.90;;;;;;5018220;28;20204;-81
2023/07/29 03:43:10;;;;;;;2.20;2.00;;;18.80;99.90;;;;;;5018500;28;20250;-80
2023/07/29 03:45:38;;;;;;;2.28;2.17;;;18.70;99.90;;;;;;5017904;28;20295;-80
2023/07/29 03:48:05;;;;;;;2.28;2.08;;;18.70;99.90;;;;;;5018348;28;20553;-81
2023/07/29 03:50:34;;;;;;;2.53;2.33;;;18.70;99.90;;;;;;5018557;28;20224;-81
2023/07/29 03:53:01;;;;;;;2.08;1.90;;;18.70;99.90;;;;;;5019108;28;20295;-80
2023/07/29 03:55:29;;;;;;;2.03;1.80;;;18.70;99.90;;;;;;5018470;28;20302;-80
2023/07/29 03:57:57;;;;;;;3.13;1.73;;;18.60;99.90;;;;;;5017138;28;20224;-81
2023/07/29 04:00:24;;;;;;;2.20;2.00;;;18.50;99.90;;;;;;5018023;28;20695;-80
2023/07/29 04:02:51;;;;;;;3.15;2.85;;;18.50;99.90;;;;;;5018212;28;20238;-80
2023/07/29 04:05:18;;;;;;;4.03;3.63;;;18.60;99.90;;;;;;5017810;28;20239;-79
2023/07/29 04:07:45;;;;;;;6.53;4.40;;;18.70;99.90;;;;;;5017665;28;20231;-80
2023/07/29 04:10:12;;;;;;;3.88;3.45;;;18.70;99.90;;;;;;5018333;28;20208;-81
2023/07/29 04:12:39;;;;;;;3.10;2.90;;;18.70;99.90;;;;;;5017201;28;20287;-79
2023/07/29 04:15:08;;;;;;;4.28;2.80;;;18.70;99.90;;;;;;5010435;28;20410;-80
2023/07/29 04:17:35;;;;;;;3.92;2.45;;;18.80;99.90;;;;;;5016018;28;20219;-81
2023/07/29 04:20:02;;;;;;;2.40;2.20;;;18.80;99.90;;;;;;5008670;28;20206;-80
2023/07/29 04:22:29;;;;;;;2.85;2.08;;;18.80;99.90;;;;;;5017224;28;20228;-80
2023/07/29 04:24:56;;;;;;;2.10;1.73;;;18.90;99.90;;;;;;5003781;28;21534;-80
2023/07/29 04:27:23;;;;;;;3.45;2.03;;;18.90;99.90;;;;;;5016787;28;20601;-80
2023/07/29 04:29:49;;;;;;;2.58;2.38;;;18.90;99.90;;;;;;5002892;28;20224;-80
2023/07/29 04:32:18;;;;;;;2.30;2.10;;;18.90;99.90;;;;;;5010087;28;20196;-80
2023/07/29 04:34:44;;;;;;;2.30;2.15;;;18.80;99.90;;;;;;5016360;28;20291;-80
2023/07/29 04:37:11;;;;;;;3.55;2.78;;;18.90;99.90;;;;;;5016089;28;20216;-79
2023/07/29 04:39:39;;;;;;;3.45;1.98;;;19.00;99.90;;;;;;5003970;28;20201;-79
2023/07/29 04:42:06;;;;;;;2.75;2.33;;;18.90;99.90;;;;;;5013684;28;20663;-82
2023/07/29 04:44:33;;;;;;;2.47;2.22;;;18.90;99.90;;;;;;5010247;28;20208;-82
2023/07/29 04:47:00;;;;;;;29.67;23.58;;;18.80;99.90;;;;;;5006950;28;20220;-82
2023/07/29 04:49:28;;;;;;;6.70;5.20;;;18.90;99.90;;;;;;5004784;28;20201;-82
2023/07/29 04:51:55;;;;;;;3.67;2.63;;;18.90;99.90;;;;;;5017766;28;20208;-80
2023/07/29 04:54:22;;;;;;;2.72;2.20;;;18.90;99.90;;;;;;5009337;28;20211;-81
2023/07/29 04:56:57;;;;;;;1.80;1.70;;;18.90;99.90;;;;;;5016211;28;20247;-81
2023/07/29 04:59:24;;;;;;;2.47;2.28;;;19.00;99.90;;;;;;5014307;28;20721;-80
2023/07/29 05:01:52;;;;;;;2.55;1.90;;;19.00;99.90;;;;;;5016477;28;20205;-81
2023/07/29 05:04:19;;;;;;;2.15;2.05;;;19.10;99.90;;;;;;5016217;28;20201;-81
2023/07/29 05:06:47;;;;;;;2.50;2.30;;;19.10;99.90;;;;;;5010044;28;20686;-80
2023/07/29 05:09:15;;;;;;;2.35;2.15;;;19.20;99.90;;;;;;5014162;28;20633;-81
2023/07/29 05:11:43;;;;;;;1.92;1.83;;;19.20;99.90;;;;;;5016430;28;20227;-80
2023/07/29 05:14:10;;;;;;;2.97;1.90;;;19.20;99.90;;;;;;5010387;28;20287;-83
2023/07/29 05:16:37;;;;;;;2.35;2.15;;;19.20;99.90;;;;;;5011797;28;20220;-81
2023/07/29 05:19:04;;;;;;;2.42;2.00;;;19.20;99.90;;;;;;5011982;28;20208;-81
2023/07/29 05:21:31;;;;;;;3.30;2.05;;;19.20;99.90;;;;;;5014690;28;20204;-81
2023/07/29 05:23:59;;;;;;;2.63;2.10;;;19.30;99.90;;;;;;5016019;28;20230;-81
2023/07/29 05:26:26;;;;;;;3.75;2.00;;;19.30;99.90;;;;;;5015202;28;20224;-80
2023/07/29 05:28:53;;;;;;;2.85;2.10;;;19.30;99.90;;;;;;5016202;28;20204;-80
2023/07/29 05:31:19;;;;;;;4.80;2.03;;;19.30;99.90;;;;;;5007444;28;20677;-80
2023/07/29 05:33:46;;;;;;;3.92;2.20;;;19.40;99.90;;;;;;5004911;28;20198;-80
2023/07/29 05:36:13;;;;;;;3.83;2.03;;;19.30;99.90;;;;;;5011235;28;20634;-80
2023/07/29 05:38:40;;;;;;;3.13;2.38;;;19.30;99.90;;;;;;5012687;28;20208;-80
2023/07/29 05:41:10;;;;;;;2.53;2.30;;;19.20;99.90;;;;;;5014116;28;20231;-80
2023/07/29 05:43:37;;;;;;;2.83;1.88;;;19.40;99.90;;;;;;5008251;28;20714;-80
2023/07/29 05:46:04;;;;;;;3.35;2.47;;;19.30;99.90;;;;;;5014755;28;20254;-80
2023/07/29 05:48:31;;;;;;;2.38;2.22;;;19.20;99.90;;;;;;5009601;28;20579;-80
2023/07/29 05:50:58;;;;;;;2.58;2.35;;;19.20;99.90;;;;;;5009930;28;20671;-80
2023/07/29 05:53:25;;;;;;;2.58;2.38;;;19.30;99.90;;;;;;5009221;28;20206;-80
2023/07/29 05:55:52;;;;;;;6.53;2.60;;;19.20;99.90;;;;;;5015297;28;20725;-80
2023/07/29 05:58:20;;;;;;;2.60;2.40;;;19.20;99.90;;;;;;5014579;28;20230;-80
2023/07/29 06:00:47;;;;;;;4.22;2.75;;;19.20;99.90;;;;;;5013851;28;20239;-80
2023/07/29 06:03:14;;;;;;;7.78;3.72;;;19.10;99.90;;;;;;5010860;28;20257;-79
2023/07/29 06:05:41;;;;;;;8.02;3.45;;;19.10;99.90;;;;;;5006674;28;20203;-80
2023/07/29 06:08:08;;;;;;;5.63;3.30;;;19.20;99.90;;;;;;5011463;28;20292;-80
2023/07/29 06:10:36;;;;;;;5.43;2.90;;;19.20;99.90;;;;;;5015214;28;20203;-80
2023/07/29 06:13:02;;;;;;;7.40;3.03;;;19.30;99.90;;;;;;5014384;28;20210;-80
2023/07/29 06:15:31;;;;;;;5.47;2.80;;;19.40;99.90;;;;;;5014134;28;20672;-80
2023/07/29 06:17:58;;;;;;;4.80;2.80;;;19.40;99.90;;;;;;5004602;28;20631;-81
2023/07/29 06:20:25;;;;;;;8.85;3.22;;;19.30;99.90;;;;;;5006043;28;20705;-81
2023/07/29 06:22:52;;;;;;;6.90;3.03;;;19.30;99.90;;;;;;5008086;28;20224;-81
2023/07/29 06:25:19;;;;;;;6.40;3.40;;;19.30;99.90;;;;;;5015053;28;20579;-81
2023/07/29 06:27:46;;;;;;;6.05;2.78;;;19.30;99.90;;;;;;5007929;28;20231;-81
2023/07/29 06:30:13;;;;;;;13.05;8.25;;;19.20;99.90;;;;;;5011976;28;20204;-81
2023/07/29 06:32:41;;;;;;;4.22;3.45;;;19.30;99.90;;;;;;5015316;28;20205;-80
2023/07/29 06:35:08;;;;;;;4.80;2.80;;;19.30;99.90;;;;;;5015796;28;20212;-81
2023/07/29 06:37:35;;;;;;;4.18;2.25;;;19.40;99.90;;;;;;5015309;28;20228;-80
2023/07/29 06:40:03;;;;;;;2.58;2.38;;;19.30;99.90;;;;;;5015780;28;20746;-81
2023/07/29 06:42:29;;;;;;;3.47;2.10;;;19.40;99.90;;;;;;5013832;28;20204;-80
2023/07/29 06:44:56;;;;;;;2.42;2.20;;;19.40;99.90;;;;;;5004666;28;20254;-80
2023/07/29 06:47:23;;;;;;;2.20;2.00;;;19.50;99.90;;;;;;5003739;28;20255;-80
2023/07/29 06:49:51;;;;;;;2.13;2.03;;;19.70;99.90;;;;;;5008894;28;20223;-80
2023/07/29 06:52:18;;;;;;;4.10;2.20;;;19.80;99.90;;;;;;5006426;28;20220;-80
2023/07/29 06:54:45;;;;;;;3.67;2.10;;;19.80;99.90;;;;;;5006774;28;20216;-80
2023/07/29 06:57:12;;;;;;;2.58;2.38;;;19.90;99.90;;;;;;5006979;28;20299;-80
2023/07/29 06:59:38;;;;;;;2.25;2.05;;;20.00;99.90;;;;;;5007836;28;20207;-80
2023/07/29 07:02:06;;;;;;;2.63;2.10;;;20.00;99.90;;;;;;5008464;28;20211;-80
2023/07/29 07:04:33;;;;;;;2.30;1.85;;;19.90;99.90;;;;;;5007881;28;20574;-80
2023/07/29 07:07:01;;;;;;;2.33;2.13;;;19.80;99.90;;;;;;5003660;28;20228;-80
2023/07/29 07:09:28;;;;;;;4.43;2.13;;;19.90;99.90;;;;;;5010244;28;20717;-80
2023/07/29 07:11:55;;;;;;;1.80;1.70;;;19.90;99.90;;;;;;5010138;28;20208;-80
2023/07/29 07:14:22;;;;;;;1.73;1.63;;;19.80;99.90;;;;;;5010972;28;20634;-80
2023/07/29 07:16:49;;;;;;;1.92;1.83;;;20.00;99.90;;;;;;5004892;28;20596;-80
2023/07/29 07:19:15;;;;;;;1.90;1.80;;;20.00;99.90;;;;;;5003425;28;20575;-80
2023/07/29 07:21:42;;;;;;;2.42;1.60;;;20.00;99.90;;;;;;5004650;28;20231;-80
2023/07/29 07:24:10;;;;;;;1.40;1.30;;;20.10;99.90;;;;;;5006234;28;20219;-80
2023/07/29 07:26:37;;;;;;;1.98;1.35;;;20.10;99.90;;;;;;5007931;28;20220;-80
2023/07/29 07:29:05;;;;;;;3.53;1.40;;;19.90;99.90;;;;;;5002650;28;20569;-80
2023/07/29 07:31:34;;;;;;;1.42;1.40;;;20.10;99.90;;;;;;5000616;28;20201;-80
2023/07/29 07:34:05;;;;;;;1.90;1.67;;;20.10;99.90;;;;;;5004929;28;20209;-81
2023/07/29 07:36:32;;;;;;;2.00;1.27;;;20.10;99.90;;;;;;5007158;28;20220;-80
2023/07/29 07:38:59;;;;;;;2.15;1.50;;;20.10;99.90;;;;;;5006373;28;20235;-80
2023/07/29 07:41:27;;;;;;;1.20;1.20;;;20.00;99.90;;;;;;5011380;28;20215;-79
2023/07/29 07:43:54;;;;;;;2.50;1.50;;;20.00;99.90;;;;;;5003368;28;20248;-81
2023/07/29 07:46:21;;;;;;;1.80;1.52;;;20.10;99.90;;;;;;5004628;28;20240;-81
2023/07/29 07:48:47;;;;;;;7.50;5.00;;;20.10;99.90;;;;;;4995442;28;20574;-81
2023/07/29 07:51:15;;;;;;;2.90;2.53;;;20.20;99.90;;;;;;5012553;28;20228;-79
2023/07/29 07:53:42;;;;;;;2.88;1.52;;;20.20;99.90;;;;;;5014629;28;20200;-81
2023/07/29 07:56:08;;;;;;;1.88;1.33;;;20.30;99.90;;;;;;5014598;28;20231;-81
2023/07/29 07:58:37;;;;;;;2.47;1.48;;;20.30;99.90;;;;;;5014537;28;20208;-80
2023/07/29 08:01:04;;;;;;;1.33;1.30;;;20.60;99.90;;;;;;5010261;28;20204;-81
2023/07/29 08:03:31;;;;;;;1.60;1.50;;;20.60;99.90;;;;;;5013973;28;20224;-80
2023/07/29 08:05:58;;;;;;;2.72;1.88;;;20.60;99.90;;;;;;5017565;28;20239;-81
2023/07/29 08:08:26;;;;;;;3.88;1.55;;;20.80;99.90;;;;;;5010687;28;20210;-80
2023/07/29 08:10:54;;;;;;;1.65;1.20;;;21.00;99.90;;;;;;5011960;28;20591;-81
2023/07/29 08:13:21;;;;;;;1.80;1.70;;;20.90;99.90;;;;;;5006958;28;20197;-81
2023/07/29 08:15:50;;;;;;;1.52;1.42;;;21.00;99.90;;;;;;5016490;28;20558;-81
2023/07/29 08:18:20;;;;;;;2.25;1.80;;;21.00;99.90;;;;;;5008687;28;20780;-81
2023/07/29 08:20:55;;;;;;;3.40;1.73;;;21.00;99.90;;;;;;5017633;28;20204;-80
2023/07/29 08:23:22;;;;;;;1.73;1.50;;;21.00;99.90;;;;;;5013581;28;20587;-80
2023/07/29 08:25:53;;;;;;;1.60;1.50;;;21.00;99.90;;;;;;5017921;28;20285;-80
2023/07/29 08:28:21;;;;;;;1.48;1.38;;;21.00;99.90;;;;;;5012256;28;20212;-80
2023/07/29 08:30:49;;;;;;;2.17;1.67;;;20.90;99.90;;;;;;5015503;28;20209;-80
2023/07/29 08:33:16;;;;;;;1.83;1.73;;;20.90;99.90;;;;;;5018009;28;20211;-79
2023/07/29 08:35:43;;;;;;;2.85;2.03;;;20.80;99.90;;;;;;5009997;28;20205;-79
2023/07/29 08:38:10;;;;;;;3.50;2.13;;;20.80;99.90;;;;;;5012867;28;20204;-81
2023/07/29 08:40:42;;;;;;;2.35;1.60;;;20.90;99.90;;;;;;5016994;28;20209;-81
2023/07/29 08:43:10;;;;;;;4.22;1.90;;;21.10;99.90;;;;;;5010543;28;20208;-81
2023/07/29 08:45:37;;;;;;;1.77;1.67;;;21.10;99.90;;;;;;5012256;28;20203;-81
2023/07/29 08:48:12;;;;;;;2.40;2.03;;;21.00;99.90;;;;;;5013030;28;20212;-81
2023/07/29 08:50:41;;;;;;;5.38;4.65;;;20.90;99.90;;;;;;5011443;28;20204;-81
2023/07/29 08:53:09;;;;;;;2.65;2.45;;;20.80;99.90;;;;;;5015120;28;20219;-80
2023/07/29 08:55:36;;;;;;;3.13;2.70;;;20.80;99.90;;;;;;5016323;28;20227;-80
2023/07/29 08:58:05;;;;;;;3.42;2.55;;;20.80;99.90;;;;;;5016071;28;20295;-80
2023/07/29 09:00:33;;;;;;;2.55;2.38;;;20.90;99.90;;;;;;5013518;28;20197;-80
2023/07/29 09:03:06;;;;;;;2.20;2.10;;;20.80;99.90;;;;;;5016879;28;20215;-80
2023/07/29 09:05:34;;;;;;;2.58;2.38;;;20.80;99.90;;;;;;5015846;28;20224;-80
2023/07/29 09:08:03;;;;;;;2.20;2.10;;;20.80;99.90;;;;;;5017466;28;20204;-80
2023/07/29 09:10:29;;;;;;;2.28;2.15;;;20.90;99.90;;;;;;5012145;28;20210;-80
2023/07/29 09:12:56;;;;;;;2.30;2.20;;;20.80;99.90;;;;;;5013655;28;20208;-80
2023/07/29 09:15:30;;;;;;;2.17;2.08;;;20.80;99.90;;;;;;5015529;28;20648;-80
2023/07/29 09:17:58;;;;;;;2.08;1.98;;;20.90;99.90;;;;;;5014978;28;20476;-80
2023/07/29 09:20:26;;;;;;;2.60;2.30;;;21.10;99.90;;;;;;5015627;28;20208;-81
2023/07/29 09:22:55;;;;;;;2.50;2.40;;;21.20;99.90;;;;;;5018903;28;20234;-81
2023/07/29 09:25:26;;;;;;;3.28;2.70;;;21.30;99.90;;;;;;5010470;28;20231;-81
2023/07/29 09:27:53;;;;;;;2.55;2.38;;;21.20;99.90;;;;;;5011858;28;20711;-81
2023/07/29 09:30:20;;;;;;;2.72;2.53;;;21.30;99.90;;;;;;5016173;28;20263;-79
2023/07/29 09:32:47;;;;;;;3.08;2.88;;;21.50;99.90;;;;;;5017019;28;20295;-80
2023/07/29 09:35:14;;;;;;;3.78;3.13;;;21.50;99.90;;;;;;5013872;28;20193;-80
2023/07/29 09:37:41;;;;;;;2.70;2.50;;;21.60;99.90;;;;;;5015967;28;20217;-80
2023/07/29 09:40:16;;;;;;;3.13;2.90;;;21.70;99.90;;;;;;5012464;28;20593;-80
2023/07/29 09:42:50;;;;;;;2.95;2.75;;;21.60;99.90;;;;;;5013745;28;20574;-80
2023/07/29 09:45:22;;;;;;;3.15;2.92;;;21.80;99.90;;;;;;5011653;28;20224;-80
2023/07/29 09:47:49;;;;;;;3.65;3.35;;;21.90;99.90;;;;;;5014928;28;20230;-80
2023/07/29 09:50:16;;;;;;;4.43;4.03;;;22.00;99.90;;;;;;5007265;28;20227;-81
2023/07/29 09:52:43;;;;;;;4.65;4.18;;;21.80;99.90;;;;;;5016024;28;20200;-80
2023/07/29 09:55:14;;;;;;;5.25;4.57;;;22.30;99.90;;;;;;5006741;28;20426;-81
2023/07/29 09:57:41;;;;;;;5.72;5.13;;;22.30;99.90;;;;;;5011388;28;20216;-81
2023/07/29 10:00:12;;;;;;;9.45;6.63;;;22.60;99.90;;;;;;5013817;28;20214;-81
2023/07/29 10:02:40;;;;;;;7.70;6.47;;;22.80;99.90;;;;;;5014470;28;20215;-81
2023/07/29 10:05:08;;;;;;;9.65;7.53;;;22.70;99.90;;;;;;5015790;28;20231;-81
2023/07/29 10:07:35;;;;;;;11.10;8.65;;;22.60;99.90;;;;;;5009301;28;20687;-81
2023/07/29 10:10:04;;;;;;;9.48;7.93;;;22.50;99.90;;;;;;5009413;28;20205;-80
2023/07/29 10:12:33;;;;;;;9.82;7.60;;;23.10;99.90;;;;;;5009675;28;20209;-80
2023/07/29 10:15:01;;;;;;;8.70;7.80;;;23.70;99.90;;;;;;5012747;28;20270;-81
2023/07/29 10:17:29;;;;;;;10.32;7.93;;;24.00;99.90;;;;;;5002911;28;20227;-80
2023/07/29 10:19:57;;;;;;;9.45;7.22;;;23.80;99.90;;;;;;5015949;28;20204;-81
2023/07/29 10:22:28;;;;;;;10.25;8.38;;;23.50;99.90;;;;;;5002333;28;20615;-80
2023/07/29 10:25:00;;;;;;;8.20;7.40;;;23.40;99.90;;;;;;5009850;28;20220;-80
2023/07/29 10:27:29;;;;;;;7.93;7.13;;;23.30;99.90;;;;;;5014396;28;20227;-80
2023/07/29 10:29:58;;;;;;;7.13;6.43;;;23.20;99.90;;;;;;5015095;28;20215;-81
2023/07/29 10:32:27;;;;;;;7.70;6.50;;;22.90;99.90;;;;;;5015071;28;20242;-84
2023/07/29 10:34:54;;;;;;;7.10;6.32;;;22.70;99.90;;;;;;5013550;28;20224;-81
2023/07/29 10:37:23;;;;;;;6.65;6.05;;;23.30;99.90;;;;;;5014127;28;20291;-81
2023/07/29 10:39:54;;;;;;;7.45;6.70;;;24.10;99.90;;;;;;5014532;28;20204;-81
2023/07/29 10:42:21;;;;;;;6.63;5.90;;;24.20;99.90;;;;;;5014751;28;20200;-81
2023/07/29 10:44:53;;;;;;;6.35;5.75;;;23.80;99.90;;;;;;5012015;28;20224;-80
2023/07/29 10:47:23;;;;;;;5.65;5.15;;;23.80;99.90;;;;;;5014358;28;20223;-81
2023/07/29 10:49:53;;;;;;;6.65;5.63;;;24.20;99.90;;;;;;5008743;28;20192;-81
2023/07/29 10:52:41;;;;;;;9.50;5.45;;;24.70;99.90;;;;;;5014237;28;20204;-80
2023/07/29 10:55:24;;;;;;;6.07;4.70;;;25.30;99.90;;;;;;5009516;28;20204;-79
2023/07/29 10:57:51;;;;;;;6.47;5.47;;;25.10;99.90;;;;;;5013270;28;20227;-80
2023/07/29 11:00:20;;;;;;;5.25;4.75;;;25.70;99.90;;;;;;5014600;28;20287;-81
2023/07/29 11:03:00;;;;;;;5.90;5.40;;;25.80;99.90;;;;;;5014981;28;20208;-82
2023/07/29 11:05:27;;;;;;;6.07;5.10;;;25.90;99.90;;;;;;5013923;28;20223;-81
2023/07/29 11:07:54;;;;;;;5.30;4.80;;;24.90;99.90;;;;;;5013845;28;20242;-81
2023/07/29 11:10:22;;;;;;;4.07;3.78;;;24.40;99.90;;;;;;5008018;28;20805;-80
2023/07/29 11:12:51;;;;;;;4.88;4.47;;;24.40;99.90;;;;;;5005329;28;20211;-80
2023/07/29 11:15:26;;;;;;;4.25;3.95;;;25.00;99.90;;;;;;5012608;28;20635;-80
2023/07/29 11:17:55;;;;;;;5.25;4.60;;;24.90;99.90;;;;;;5012240;28;20315;-81
2023/07/29 11:20:23;;;;;;;5.13;4.55;;;25.50;99.90;;;;;;5008044;28;20210;-81
2023/07/29 11:22:50;;;;;;;4.93;4.28;;;25.70;99.90;;;;;;5014115;28;20235;-81
2023/07/29 11:25:19;;;;;;;3.72;3.33;;;25.90;99.90;;;;;;5009331;28;20236;-81
2023/07/29 11:27:46;;;;;;;3.83;3.60;;;26.20;99.90;;;;;;5007033;28;20782;-82
2023/07/29 11:30:15;;;;;;;4.10;3.80;;;26.20;99.90;;;;;;5009411;28;20204;-81
2023/07/29 11:32:44;;;;;;;3.53;3.33;;;26.50;99.90;;;;;;5012103;28;20287;-80
2023/07/29 11:35:15;;;;;;;3.10;2.90;;;26.40;99.90;;;;;;5014291;28;20208;-80
2023/07/29 11:37:43;;;;;;;3.60;3.30;;;26.20;99.90;;;;;;5013318;28;20250;-81
2023/07/29 11:40:14;;;;;;;3.90;3.60;;;26.40;99.90;;;;;;5017582;28;20211;-81
2023/07/29 11:42:42;;;;;;;3.25;3.05;;;26.80;99.90;;;;;;5018844;28;20260;-81
2023/07/29 11:45:10;;;;;;;3.78;3.08;;;26.80;99.90;;;;;;5018219;28;20228;-81
2023/07/29 11:47:37;;;;;;;3.35;3.08;;;26.80;99.90;;;;;;5016556;28;20231;-80
2023/07/29 11:50:05;;;;;;;3.60;2.40;;;26.60;99.90;;;;;;5017066;28;20204;-80
2023/07/29 11:52:34;;;;;;;2.58;2.38;;;26.50;99.90;;;;;;5016631;28;20684;-82
2023/07/29 11:55:02;;;;;;;3.33;2.15;;;26.50;99.90;;;;;;5018522;28;20676;-80
2023/07/29 11:57:29;;;;;;;2.40;1.70;;;26.60;99.90;;;;;;5017823;28;20220;-81
2023/07/29 11:59:56;;;;;;;1.70;1.60;;;26.60;99.90;;;;;;5017824;28;20668;-81
2023/07/29 12:02:25;;;;;;;1.83;1.73;;;26.40;99.90;;;;;;5015554;28;20240;-81
2023/07/29 12:04:53;;;;;;;2.10;2.00;;;26.40;99.90;;;;;;5016504;28;20294;-82
2023/07/29 12:07:20;;;;;;;2.67;1.65;;;25.80;99.90;;;;;;5015099;28;20221;-83
2023/07/29 12:09:50;;;;;;;1.48;1.38;;;25.40;99.90;;;;;;5013840;28;20398;-81
2023/07/29 12:12:17;;;;;;;1.25;1.15;;;25.90;99.90;;;;;;5018017;28;20235;-82
2023/07/29 12:14:47;;;;;;;0.95;0.95;;;26.20;99.90;;;;;;5018351;28;20197;-81
2023/07/29 12:17:14;;;;;;;1.23;1.15;;;26.30;99.90;;;;;;5017337;28;20270;-80
2023/07/29 12:19:42;;;;;;;1.30;1.00;;;26.90;99.90;;;;;;5010070;28;20243;-80
2023/07/29 12:22:10;;;;;;;1.38;1.27;;;26.80;99.90;;;;;;5016397;28;20208;-80
2023/07/29 12:24:39;;;;;;;1.45;1.30;;;26.40;99.90;;;;;;5016786;28;20224;-81
2023/07/29 12:27:11;;;;;;;1.40;1.30;;;26.40;99.90;;;;;;5013085;28;20220;-82
2023/07/29 12:29:41;;;;;;;1.33;1.23;;;26.20;99.90;;;;;;5014804;28;20207;-81
2023/07/29 12:32:09;;;;;;;1.00;1.00;;;26.30;99.90;;;;;;5017619;28;20258;-81
2023/07/29 12:34:37;;;;;;;1.15;1.10;;;26.30;99.90;;;;;;5016484;28;20204;-81
2023/07/29 12:37:05;;;;;;;1.30;1.20;;;26.10;99.90;;;;;;5016349;28;20293;-81
2023/07/29 12:39:34;;;;;;;2.55;1.23;;;26.60;99.90;;;;;;5013887;28;20204;-81
2023/07/29 12:42:03;;;;;;;1.00;1.00;;;26.80;99.90;;;;;;5015798;28;20694;-81
2023/07/29 12:44:33;;;;;;;1.33;1.23;;;26.50;99.90;;;;;;5017146;28;20236;-81
2023/07/29 12:47:02;;;;;;;0.90;0.90;;;26.90;99.90;;;;;;5016349;28;20315;-81
2023/07/29 12:49:29;;;;;;;0.85;0.85;;;27.00;99.90;;;;;;5016942;28;20211;-81